createdAt,value
2023-06-03T00:00:26.157Z,71.67
2023-06-03T00:02:55.076Z,71.94
2023-06-03T00:05:23.717Z,72.11
2023-06-03T00:07:52.125Z,71.85
2023-06-03T00:10:20.551Z,71.49
2023-06-03T00:12:50.378Z,71.99
2023-06-03T00:15:18.718Z,71.48
2023-06-03T00:17:47.055Z,71.12
2023-06-03T00:20:16.234Z,70.93
2023-06-03T00:22:46.288Z,71.09
2023-06-03T00:25:14.560Z,71.16
2023-06-03T00:27:44.675Z,71.84
2023-06-03T00:30:14.517Z,72.42
2023-06-03T00:32:42.854Z,72.72
2023-06-03T00:35:11.848Z,72.56
2023-06-03T00:37:40.554Z,72.34
2023-06-03T00:40:11.537Z,73.24
2023-06-03T00:42:39.796Z,73.21
2023-06-03T00:45:09.829Z,72.22
2023-06-03T00:47:40.354Z,72.43
2023-06-03T00:50:11.723Z,71.89
2023-06-03T00:52:42.461Z,72.22
2023-06-03T00:55:11.656Z,71.56
2023-06-03T00:57:40.069Z,71.70
2023-06-03T01:00:11.770Z,71.96
2023-06-03T01:02:45.325Z,71.53
2023-06-03T01:05:14.949Z,71.98
2023-06-03T01:07:57.481Z,71.71
2023-06-03T01:10:39.595Z,71.81
2023-06-03T01:13:17.539Z,72.03
2023-06-03T01:15:48.804Z,72.17
2023-06-03T01:18:19.995Z,72.38
2023-06-03T01:20:49.524Z,71.85
2023-06-03T01:23:25.354Z,71.57
2023-06-03T01:25:57.904Z,71.78
2023-06-03T01:28:29.037Z,71.82
2023-06-03T01:30:58.767Z,71.87
2023-06-03T01:33:30.936Z,72.07
2023-06-03T01:36:04.452Z,72.94
2023-06-03T01:38:35.856Z,72.60
2023-06-03T01:41:05.966Z,72.31
2023-06-03T01:43:34.830Z,72.39
2023-06-03T01:46:03.393Z,73.15
2023-06-03T01:48:32.000Z,72.91
2023-06-03T01:51:00.831Z,73.06
2023-06-03T01:53:29.912Z,72.94
2023-06-03T01:56:00.445Z,72.63
2023-06-03T01:58:28.823Z,72.21
2023-06-03T02:00:57.641Z,72.87
2023-06-03T02:03:26.186Z,72.88
2023-06-03T02:05:54.466Z,73.05
2023-06-03T02:08:22.889Z,73.28
2023-06-03T02:10:51.180Z,73.06
2023-06-03T02:13:21.424Z,72.88
2023-06-03T02:15:49.783Z,72.48
2023-06-03T02:18:19.185Z,72.91
2023-06-03T02:20:49.375Z,73.18
2023-06-03T02:23:17.700Z,73.26
2023-06-03T02:25:45.976Z,73.27
2023-06-03T02:28:17.762Z,73.50
2023-06-03T02:30:47.579Z,73.55
2023-06-03T02:33:16.004Z,73.07
2023-06-03T02:35:45.646Z,72.40
2023-06-03T02:38:13.939Z,72.31
2023-06-03T02:40:42.958Z,72.15
2023-06-03T02:43:11.485Z,71.73
2023-06-03T02:45:39.873Z,71.60
2023-06-03T02:48:10.289Z,71.69
2023-06-03T02:50:38.732Z,71.43
2023-06-03T02:53:09.062Z,71.67
2023-06-03T02:55:37.856Z,71.74
2023-06-03T02:58:06.549Z,72.08
2023-06-03T03:00:35.046Z,72.10
2023-06-03T03:03:03.643Z,72.11
2023-06-03T03:05:33.757Z,72.39
2023-06-03T03:08:02.202Z,73.02
2023-06-03T03:10:30.523Z,73.63
2023-06-03T03:12:58.815Z,73.60
2023-06-03T03:15:27.879Z,73.98
2023-06-03T03:17:57.138Z,73.69
2023-06-03T03:20:30.193Z,74.24
2023-06-03T03:23:01.190Z,73.73
2023-06-03T03:25:29.487Z,73.61
2023-06-03T03:27:59.400Z,73.23
2023-06-03T03:30:28.428Z,73.07
2023-06-03T03:33:00.084Z,72.71
2023-06-03T03:35:29.250Z,72.80
2023-06-03T03:38:04.672Z,72.24
2023-06-03T03:40:39.536Z,72.14
2023-06-03T03:43:17.111Z,71.95
2023-06-03T03:45:46.885Z,71.95
2023-06-03T03:48:21.822Z,72.07
2023-06-03T03:50:55.130Z,72.01
2023-06-03T03:53:38.195Z,72.05
2023-06-03T03:56:20.086Z,71.63
2023-06-03T03:58:54.367Z,71.55
2023-06-03T04:01:26.534Z,71.64
2023-06-03T04:04:01.902Z,71.66
2023-06-03T04:06:37.775Z,71.61
2023-06-03T04:09:11.476Z,71.52
2023-06-03T04:11:43.728Z,71.49
2023-06-03T04:14:16.640Z,71.21
2023-06-03T04:16:55.948Z,70.98
2023-06-03T04:19:38.355Z,71.02
2023-06-03T04:22:22.788Z,70.89
2023-06-03T04:25:01.671Z,70.53
2023-06-03T04:27:42.808Z,70.91
2023-06-03T04:30:14.384Z,70.86
2023-06-03T04:32:42.802Z,70.75
2023-06-03T04:35:11.808Z,70.55
2023-06-03T04:37:44.043Z,71.05
2023-06-03T04:40:18.029Z,70.17
2023-06-03T04:42:49.121Z,70.40
2023-06-03T04:45:18.351Z,70.21
2023-06-03T04:47:48.607Z,70.35
2023-06-03T04:50:21.519Z,70.17
2023-06-03T04:52:52.320Z,70.24
2023-06-03T04:55:23.995Z,70.03
2023-06-03T04:57:52.594Z,69.83
2023-06-03T05:00:23.608Z,70.03
2023-06-03T05:03:01.233Z,70.02
2023-06-03T05:05:32.288Z,70.18
2023-06-03T05:08:01.284Z,69.73
2023-06-03T05:10:31.274Z,69.58
2023-06-03T05:12:59.703Z,69.24
2023-06-03T05:15:29.416Z,69.00
2023-06-03T05:18:00.222Z,69.10
2023-06-03T05:20:28.654Z,68.68
2023-06-03T05:22:57.191Z,68.53
2023-06-03T05:25:25.698Z,68.86
2023-06-03T05:28:03.914Z,68.49
2023-06-03T05:30:34.552Z,68.29
2023-06-03T05:33:03.439Z,68.46
2023-06-03T05:35:31.914Z,68.00
2023-06-03T05:38:00.999Z,68.06
2023-06-03T05:40:29.429Z,67.76
2023-06-03T05:43:00.430Z,67.61
2023-06-03T05:45:30.078Z,67.37
2023-06-03T05:47:58.578Z,66.68
2023-06-03T05:50:27.621Z,66.89
2023-06-03T05:52:57.250Z,66.30
2023-06-03T05:55:26.233Z,66.06
2023-06-03T05:57:55.542Z,65.99
2023-06-03T06:00:25.548Z,65.43
2023-06-03T06:02:58.053Z,65.26
2023-06-03T06:05:26.609Z,64.90
2023-06-03T06:07:55.725Z,64.79
2023-06-03T06:10:24.322Z,64.46
2023-06-03T06:12:52.789Z,64.45
2023-06-03T06:15:22.082Z,64.11
2023-06-03T06:17:52.048Z,63.81
2023-06-03T06:20:20.597Z,63.23
2023-06-03T06:22:50.846Z,62.88
2023-06-03T06:25:20.430Z,62.65
2023-06-03T06:27:50.942Z,62.46
2023-06-03T06:30:22.366Z,62.39
2023-06-03T06:32:54.077Z,61.53
2023-06-03T06:35:30.453Z,61.70
2023-06-03T06:38:01.196Z,61.42
2023-06-03T06:40:36.341Z,61.85
2023-06-03T06:43:10.232Z,60.77
2023-06-03T06:45:45.485Z,60.68
2023-06-03T06:48:16.203Z,60.25
2023-06-03T06:50:54.158Z,60.53
2023-06-03T06:53:28.781Z,59.94
2023-06-03T06:56:06.099Z,59.79
2023-06-03T06:58:45.147Z,59.18
2023-06-03T07:01:14.205Z,58.84
2023-06-03T07:03:50.924Z,59.06
2023-06-03T07:06:20.469Z,58.90
2023-06-03T07:08:52.370Z,58.51
2023-06-03T07:11:24.006Z,57.81
2023-06-03T07:14:01.748Z,57.95
2023-06-03T07:16:30.689Z,57.43
2023-06-03T07:19:00.934Z,57.40
2023-06-03T07:21:36.460Z,56.67
2023-06-03T07:24:08.916Z,55.92
2023-06-03T07:26:38.279Z,56.29
2023-06-03T07:29:06.698Z,56.11
2023-06-03T07:31:38.261Z,55.73
2023-06-03T07:34:10.152Z,55.76
2023-06-03T07:36:43.051Z,55.19
2023-06-03T07:39:19.754Z,54.18
2023-06-03T07:41:53.883Z,54.74
2023-06-03T07:44:44.202Z,52.79
2023-06-03T07:47:15.796Z,52.55
2023-06-03T07:49:49.211Z,50.84
2023-06-03T07:52:20.492Z,48.91
2023-06-03T07:54:49.532Z,48.26
2023-06-03T07:57:18.248Z,45.00
2023-06-03T07:59:54.062Z,42.04
2023-06-03T08:02:23.291Z,38.39
2023-06-03T08:04:57.462Z,37.10
2023-06-03T08:07:26.463Z,34.18
2023-06-03T08:09:54.986Z,33.54
2023-06-03T08:12:30.764Z,32.45
2023-06-03T08:14:59.958Z,31.29
2023-06-03T08:17:40.609Z,29.77
2023-06-03T08:20:12.055Z,28.65
2023-06-03T08:22:44.406Z,26.89
2023-06-03T08:25:14.495Z,27.70
2023-06-03T08:27:43.194Z,26.68
2023-06-03T08:30:14.958Z,25.83
2023-06-03T08:32:46.468Z,24.91
2023-06-03T08:35:18.931Z,25.41
2023-06-03T08:37:47.753Z,25.24
2023-06-03T08:40:18.591Z,24.90
2023-06-03T08:42:49.224Z,24.48
2023-06-03T08:45:18.847Z,24.74
2023-06-03T08:48:08.618Z,24.94
2023-06-03T08:50:39.580Z,23.97
2023-06-03T08:53:12.888Z,23.53
2023-06-03T08:55:41.785Z,23.63
2023-06-03T08:58:20.258Z,23.13
2023-06-03T09:00:53.809Z,23.59
2023-06-03T09:03:23.003Z,23.47
2023-06-03T09:05:54.739Z,23.82
2023-06-03T09:08:24.263Z,23.04
2023-06-03T09:10:53.383Z,23.25
2023-06-03T09:13:24.400Z,24.07
2023-06-03T09:15:54.129Z,23.46
2023-06-03T09:18:23.123Z,23.49
2023-06-03T09:20:52.925Z,23.88
2023-06-03T09:23:22.154Z,23.81
2023-06-03T09:25:50.845Z,23.66
2023-06-03T09:28:19.270Z,23.53
2023-06-03T09:30:47.745Z,23.35
2023-06-03T09:33:17.468Z,22.81
2023-06-03T09:35:45.938Z,22.92
2023-06-03T09:38:16.025Z,23.72
2023-06-03T09:40:44.394Z,23.25
2023-06-03T09:43:13.570Z,23.38
2023-06-03T09:45:42.203Z,22.80
2023-06-03T09:48:11.710Z,23.22
2023-06-03T09:50:50.631Z,22.92
2023-06-03T09:53:22.979Z,23.59
2023-06-03T09:55:51.387Z,23.37
2023-06-03T09:58:24.298Z,23.34
2023-06-03T10:00:56.385Z,24.96
2023-06-03T10:03:26.724Z,23.57
2023-06-03T10:05:55.447Z,24.82
2023-06-03T10:08:32.119Z,24.42
2023-06-03T10:11:03.199Z,24.56
2023-06-03T10:13:31.766Z,23.65
2023-06-03T10:16:02.708Z,24.58
2023-06-03T10:18:39.314Z,24.28
2023-06-03T10:21:10.321Z,24.55
2023-06-03T10:23:44.440Z,24.17
2023-06-03T10:26:13.114Z,23.84
2023-06-03T10:28:41.732Z,23.30
2023-06-03T10:31:13.773Z,23.36
2023-06-03T10:33:42.584Z,23.29
2023-06-03T10:36:13.944Z,23.87
2023-06-03T10:38:43.703Z,22.97
2023-06-03T10:41:13.775Z,24.26
2023-06-03T10:43:45.732Z,23.62
2023-06-03T10:46:15.901Z,24.19
2023-06-03T10:48:48.052Z,24.62
2023-06-03T10:51:39.808Z,23.92
2023-06-03T10:54:38.860Z,23.30
2023-06-03T10:57:10.633Z,24.05
2023-06-03T10:59:44.597Z,23.44
2023-06-03T11:02:14.091Z,22.52
2023-06-03T11:04:43.378Z,24.10
2023-06-03T11:07:45.653Z,23.43
2023-06-03T11:10:46.421Z,23.47
2023-06-03T11:13:41.996Z,23.88
2023-06-03T11:16:11.961Z,22.55
2023-06-03T11:18:40.654Z,24.56
2023-06-03T11:21:51.326Z,24.51
2023-06-03T11:24:52.830Z,24.55
2023-06-03T11:27:26.682Z,24.07
2023-06-03T11:29:58.275Z,23.58
2023-06-03T11:32:28.290Z,24.82
2023-06-03T11:35:31.387Z,24.99
2023-06-03T11:38:00.451Z,22.74
2023-06-03T11:40:46.406Z,25.11
2023-06-03T11:43:16.151Z,24.62
2023-06-03T11:45:44.610Z,23.84
2023-06-03T11:48:14.616Z,25.20
2023-06-03T11:50:51.422Z,24.86
2023-06-03T11:53:34.243Z,24.41
2023-06-03T11:56:09.336Z,21.80
2023-06-03T11:58:41.321Z,22.60
2023-06-03T12:01:12.218Z,24.45
2023-06-03T12:03:40.995Z,22.71
2023-06-03T12:06:09.730Z,22.38
2023-06-03T12:08:48.840Z,26.20
2023-06-03T12:11:28.300Z,22.56
2023-06-03T12:13:58.941Z,23.08
2023-06-03T12:16:33.518Z,23.67
2023-06-03T12:19:05.298Z,23.22
2023-06-03T12:21:35.010Z,22.06
2023-06-03T12:24:10.541Z,22.49
2023-06-03T12:26:42.052Z,22.07
2023-06-03T12:29:15.560Z,21.87
2023-06-03T12:31:58.817Z,21.62
2023-06-03T12:34:35.733Z,22.48
2023-06-03T12:37:05.386Z,22.00
2023-06-03T12:39:49.967Z,22.09
2023-06-03T12:42:20.593Z,21.90
2023-06-03T12:44:54.293Z,21.24
2023-06-03T12:47:24.000Z,21.64
2023-06-03T12:50:07.604Z,20.49
2023-06-03T12:52:38.428Z,19.25
2023-06-03T12:55:09.428Z,21.97
2023-06-03T12:57:40.021Z,20.94
2023-06-03T13:00:16.352Z,20.69
2023-06-03T13:02:47.517Z,21.48
2023-06-03T13:05:17.066Z,21.35
2023-06-03T13:07:47.134Z,20.40
2023-06-03T13:10:20.168Z,19.45
2023-06-03T13:12:49.292Z,19.66
2023-06-03T13:15:19.406Z,21.17
2023-06-03T13:17:47.892Z,21.37
2023-06-03T13:20:17.377Z,22.27
2023-06-03T13:22:46.277Z,21.33
2023-06-03T13:25:14.571Z,21.97
2023-06-03T13:27:43.749Z,21.41
2023-06-03T13:30:16.353Z,21.32
2023-06-03T13:32:46.756Z,20.57
2023-06-03T13:35:15.439Z,19.15
2023-06-03T13:37:43.633Z,18.10
2023-06-03T13:40:12.577Z,19.10
2023-06-03T13:42:43.055Z,20.38
2023-06-03T13:45:12.349Z,20.63
2023-06-03T13:47:41.185Z,20.93
2023-06-03T13:50:11.988Z,20.79
2023-06-03T13:52:40.578Z,21.43
2023-06-03T13:55:11.047Z,21.59
2023-06-03T13:57:39.295Z,20.10
2023-06-03T14:00:11.986Z,19.16
2023-06-03T14:02:40.333Z,20.17
2023-06-03T14:05:11.486Z,20.67
2023-06-03T14:07:39.892Z,18.64
2023-06-03T14:10:10.412Z,21.12
2023-06-03T14:12:38.803Z,21.21
2023-06-03T14:15:08.985Z,21.30
2023-06-03T14:17:37.563Z,20.13
2023-06-03T14:20:08.885Z,20.60
2023-06-03T14:22:38.655Z,19.21
2023-06-03T14:25:08.521Z,20.36
2023-06-03T14:27:36.861Z,18.68
2023-06-03T14:30:06.950Z,20.18
2023-06-03T14:32:35.536Z,19.83
2023-06-03T14:35:08.887Z,20.07
2023-06-03T14:37:39.821Z,20.38
2023-06-03T14:40:10.037Z,20.90
2023-06-03T14:42:38.529Z,19.91
2023-06-03T14:45:08.470Z,19.82
2023-06-03T14:47:36.834Z,20.16
2023-06-03T14:50:06.057Z,21.76
2023-06-03T14:52:35.033Z,20.98
2023-06-03T14:55:08.473Z,19.13
2023-06-03T14:57:38.516Z,21.07
2023-06-03T15:00:08.640Z,20.42
2023-06-03T15:02:37.058Z,21.33
2023-06-03T15:05:06.381Z,20.53
2023-06-03T15:07:34.681Z,20.66
2023-06-03T15:10:04.727Z,20.07
2023-06-03T15:12:33.275Z,20.30
2023-06-03T15:15:01.643Z,20.76
2023-06-03T15:17:29.872Z,20.73
2023-06-03T15:19:58.414Z,19.99
2023-06-03T15:22:26.879Z,19.81
2023-06-03T15:24:55.294Z,20.11
2023-06-03T15:27:24.950Z,20.32
2023-06-03T15:29:53.251Z,20.36
2023-06-03T15:32:21.727Z,21.24
2023-06-03T15:34:50.021Z,21.02
2023-06-03T15:37:18.373Z,21.13
2023-06-03T15:39:46.645Z,21.07
2023-06-03T15:42:15.504Z,20.56
2023-06-03T15:44:47.744Z,21.17
2023-06-03T15:47:16.342Z,20.80
2023-06-03T15:49:44.584Z,20.38
2023-06-03T15:52:12.817Z,19.68
2023-06-03T15:54:41.101Z,20.55
2023-06-03T15:57:09.793Z,20.82
2023-06-03T15:59:38.029Z,20.60
2023-06-03T16:02:10.042Z,21.08
2023-06-03T16:04:38.486Z,20.96
2023-06-03T16:07:07.007Z,21.38
2023-06-03T16:09:38.499Z,21.32
2023-06-03T16:12:07.484Z,20.37
2023-06-03T16:14:36.558Z,20.73
2023-06-03T16:17:06.335Z,20.98
2023-06-03T16:19:36.188Z,20.28
2023-06-03T16:22:04.750Z,21.17
2023-06-03T16:24:33.817Z,20.63
2023-06-03T16:27:02.473Z,20.36
2023-06-03T16:29:31.262Z,20.55
2023-06-03T16:31:59.904Z,20.89
2023-06-03T16:34:30.051Z,20.47
2023-06-03T16:36:59.760Z,20.56
2023-06-03T16:39:28.023Z,20.77
2023-06-03T16:41:56.605Z,20.01
2023-06-03T16:44:24.898Z,20.16
2023-06-03T16:46:53.166Z,20.53
2023-06-03T16:49:22.858Z,20.57
2023-06-03T16:51:51.897Z,21.46
2023-06-03T16:54:21.724Z,21.33
2023-06-03T16:56:49.921Z,21.62
2023-06-03T16:59:18.386Z,21.66
2023-06-03T17:01:47.202Z,21.87
2023-06-03T17:04:15.903Z,21.25
2023-06-03T17:06:44.255Z,21.38
2023-06-03T17:09:13.255Z,21.52
2023-06-03T17:11:42.974Z,21.75
2023-06-03T17:14:11.617Z,21.62
2023-06-03T17:16:42.434Z,21.88
2023-06-03T17:19:11.048Z,22.04
2023-06-03T17:21:39.370Z,22.66
2023-06-03T17:24:08.540Z,22.74
2023-06-03T17:26:36.935Z,22.21
2023-06-03T17:29:08.482Z,22.28
2023-06-03T17:31:37.016Z,22.78
2023-06-03T17:34:05.297Z,22.55
2023-06-03T17:36:33.639Z,23.00
2023-06-03T17:39:02.046Z,23.33
2023-06-03T17:41:30.405Z,23.20
2023-06-03T17:43:58.880Z,23.09
2023-06-03T17:46:28.537Z,23.19
2023-06-03T17:48:56.941Z,23.54
2023-06-03T17:51:25.855Z,24.46
2023-06-03T17:53:54.638Z,24.64
2023-06-03T17:56:22.936Z,25.31
2023-06-03T17:58:51.188Z,25.38
2023-06-03T18:01:19.533Z,25.73
2023-06-03T18:03:49.197Z,25.59
2023-06-03T18:06:19.501Z,26.04
2023-06-03T18:08:48.077Z,25.37
2023-06-03T18:11:16.433Z,26.45
2023-06-03T18:13:44.812Z,26.83
2023-06-03T18:16:13.077Z,26.67
2023-06-03T18:18:41.330Z,27.38
2023-06-03T18:21:10.993Z,26.30
2023-06-03T18:23:39.482Z,26.58
2023-06-03T18:26:16.331Z,26.16
2023-06-03T18:28:55.744Z,27.27
2023-06-03T18:31:24.219Z,27.09
2023-06-03T18:33:52.690Z,28.48
2023-06-03T18:36:22.413Z,28.31
2023-06-03T18:38:50.876Z,28.86
2023-06-03T18:41:19.190Z,29.00
2023-06-03T18:43:47.554Z,29.14
2023-06-03T18:46:15.902Z,29.68
2023-06-03T18:48:44.335Z,29.43
2023-06-03T18:51:14.145Z,29.79
2023-06-03T18:53:44.080Z,29.83
2023-06-03T18:56:15.218Z,30.44
2023-06-03T18:58:47.494Z,30.57
2023-06-03T19:01:18.159Z,30.92
2023-06-03T19:03:46.801Z,31.49
2023-06-03T19:06:16.444Z,32.10
2023-06-03T19:08:46.208Z,32.41
2023-06-03T19:11:14.526Z,32.08
2023-06-03T19:13:42.966Z,32.15
2023-06-03T19:16:11.429Z,31.96
2023-06-03T19:18:39.791Z,32.64
2023-06-03T19:21:10.847Z,32.29
2023-06-03T19:23:40.381Z,32.91
2023-06-03T19:26:10.921Z,33.54
2023-06-03T19:28:39.220Z,33.92
2023-06-03T19:31:07.633Z,34.36
2023-06-03T19:33:35.933Z,34.50
2023-06-03T19:36:04.505Z,34.27
2023-06-03T19:38:32.972Z,34.86
2023-06-03T19:41:01.571Z,35.09
2023-06-03T19:43:31.304Z,35.24
2023-06-03T19:45:59.603Z,35.60
2023-06-03T19:48:27.952Z,35.47
2023-06-03T19:50:56.544Z,35.93
2023-06-03T19:53:24.917Z,36.28
2023-06-03T19:55:53.373Z,35.57
2023-06-03T19:58:23.440Z,35.64
2023-06-03T20:00:55.370Z,35.54
2023-06-03T20:03:26.678Z,35.71
2023-06-03T20:05:55.132Z,36.10
2023-06-03T20:08:23.443Z,36.76
2023-06-03T20:10:56.569Z,36.88
2023-06-03T20:13:35.472Z,37.81
2023-06-03T20:16:08.711Z,37.76
2023-06-03T20:18:37.524Z,37.51
2023-06-03T20:21:06.287Z,37.90
2023-06-03T20:23:34.717Z,37.68
2023-06-03T20:26:03.357Z,37.85
2023-06-03T20:28:32.321Z,36.98
2023-06-03T20:31:08.746Z,37.65
2023-06-03T20:33:39.781Z,36.65
2023-06-03T20:36:11.360Z,37.25
2023-06-03T20:38:39.728Z,37.44
2023-06-03T20:41:08.280Z,37.37
2023-06-03T20:43:36.700Z,37.43
2023-06-03T20:46:06.719Z,38.29
2023-06-03T20:48:35.520Z,39.94
2023-06-03T20:51:07.602Z,42.83
2023-06-03T20:53:36.356Z,45.44
2023-06-03T20:56:08.020Z,45.52
2023-06-03T20:58:36.547Z,46.42
2023-06-03T21:01:06.959Z,47.32
2023-06-03T21:03:37.100Z,48.93
2023-06-03T21:06:13.365Z,48.72
2023-06-03T21:08:41.819Z,48.29
2023-06-03T21:11:11.527Z,48.52
2023-06-03T21:13:40.174Z,48.89
2023-06-03T21:16:10.792Z,48.41
2023-06-03T21:18:42.539Z,48.29
2023-06-03T21:21:11.019Z,48.76
2023-06-03T21:23:42.257Z,47.80
2023-06-03T21:26:11.266Z,47.13
2023-06-03T21:28:39.598Z,47.15
2023-06-03T21:31:09.674Z,47.04
2023-06-03T21:33:38.177Z,46.69
2023-06-03T21:36:06.750Z,47.38
2023-06-03T21:38:35.077Z,47.64
2023-06-03T21:41:04.562Z,47.50
2023-06-03T21:43:33.081Z,48.02
2023-06-03T21:46:01.440Z,47.88
2023-06-03T21:48:31.458Z,48.80
2023-06-03T21:50:59.778Z,49.67
2023-06-03T21:53:28.072Z,49.68
2023-06-03T21:55:56.506Z,50.05
2023-06-03T21:58:25.422Z,50.95
2023-06-03T22:00:53.983Z,50.33
2023-06-03T22:03:22.304Z,50.90
2023-06-03T22:05:52.103Z,51.58
2023-06-03T22:08:20.726Z,51.72
2023-06-03T22:10:49.044Z,51.63
2023-06-03T22:13:17.902Z,52.28
2023-06-03T22:15:46.301Z,51.83
2023-06-03T22:18:16.302Z,52.57
2023-06-03T22:20:44.701Z,53.32
2023-06-03T22:23:14.393Z,53.18
2023-06-03T22:25:42.750Z,53.17
2023-06-03T22:28:11.382Z,52.72
2023-06-03T22:30:40.068Z,53.83
2023-06-03T22:33:09.678Z,53.02
2023-06-03T22:35:41.394Z,53.48
2023-06-03T22:38:10.148Z,53.27
2023-06-03T22:40:40.155Z,53.70
2023-06-03T22:43:08.571Z,53.26
2023-06-03T22:45:36.826Z,53.73
2023-06-03T22:48:06.118Z,53.23
2023-06-03T22:50:34.437Z,53.36
2023-06-03T22:53:03.026Z,53.82
2023-06-03T22:55:31.236Z,54.55
2023-06-03T22:58:02.426Z,54.07
2023-06-03T23:00:31.097Z,54.13
2023-06-03T23:02:59.961Z,54.61
2023-06-03T23:05:28.488Z,54.42
2023-06-03T23:07:57.110Z,54.62
2023-06-03T23:10:25.359Z,54.77
2023-06-03T23:12:53.758Z,55.17
2023-06-03T23:15:23.744Z,55.24
2023-06-03T23:17:54.292Z,55.35
2023-06-03T23:20:25.495Z,55.58
2023-06-03T23:22:53.894Z,55.17
2023-06-03T23:25:23.045Z,54.88
2023-06-03T23:27:51.650Z,55.28
2023-06-03T23:30:21.105Z,54.95
2023-06-03T23:32:51.219Z,55.17
2023-06-03T23:35:21.020Z,55.76
2023-06-03T23:37:49.304Z,55.69
2023-06-03T23:40:17.956Z,55.86
2023-06-03T23:42:46.300Z,55.83
2023-06-03T23:45:14.770Z,56.52
2023-06-03T23:47:43.248Z,56.70
2023-06-03T23:50:14.295Z,56.61
2023-06-03T23:52:42.638Z,56.64
2023-06-03T23:55:12.029Z,56.54
2023-06-03T23:57:40.295Z,56.60
